sensor_id;sensor_type;location;lat;lon;timestamp;P1;P2;P0
73146;PMS7003;61345;48.922;2.244;2022-07-05T00:02:00;1.50;1.00;1.00
73146;PMS7003;61345;48.922;2.244;2022-07-05T00:04:26;3.25;1.00;0.50
73146;PMS7003;61345;48.922;2.244;2022-07-05T00:06:51;2.00;1.00;1.00
73146;PMS7003;61345;48.922;2.244;2022-07-05T00:09:35;2.00;2.00;1.50
73146;PMS7003;61345;48.922;2.244;2022-07-05T00:12:00;1.75;1.00;1.00
73146;PMS7003;61345;48.922;2.244;2022-07-05T00:14:26;2.25;1.50;1.00
73146;PMS7003;61345;48.922;2.244;2022-07-05T00:16:51;1.75;1.00;1.00
73146;PMS7003;61345;48.922;2.244;2022-07-05T00:19:17;1.75;1.00;1.00
73146;PMS7003;61345;48.922;2.244;2022-07-05T00:21:42;2.25;1.50;1.00
73146;PMS7003;61345;48.922;2.244;2022-07-05T00:24:07;2.00;2.00;1.00
73146;PMS7003;61345;48.922;2.244;2022-07-05T00:26:33;1.00;1.00;1.00
73146;PMS7003;61345;48.922;2.244;2022-07-05T00:28:58;3.00;3.00;2.00
73146;PMS7003;61345;48.922;2.244;2022-07-05T00:31:23;1.00;1.00;1.00
73146;PMS7003;61345;48.922;2.244;2022-07-05T00:33:51;1.75;1.75;1.00
73146;PMS7003;61345;48.922;2.244;2022-07-05T00:36:16;4.00;2.00;1.25
73146;PMS7003;61345;48.922;2.244;2022-07-05T00:38:42;4.25;2.00;2.00
73146;PMS7003;61345;48.922;2.244;2022-07-05T00:41:07;3.50;2.00;1.75
73146;PMS7003;61345;48.922;2.244;2022-07-05T00:43:32;3.25;2.00;2.00
73146;PMS7003;61345;48.922;2.244;2022-07-05T00:45:58;1.50;1.50;1.25
73146;PMS7003;61345;48.922;2.244;2022-07-05T00:48:24;2.00;2.00;1.75
73146;PMS7003;61345;48.922;2.244;2022-07-05T00:50:49;1.00;1.00;1.00
73146;PMS7003;61345;48.922;2.244;2022-07-05T00:53:15;2.50;2.50;2.00
73146;PMS7003;61345;48.922;2.244;2022-07-05T00:55:42;1.00;1.00;1.00
73146;PMS7003;61345;48.922;2.244;2022-07-05T00:58:09;0.50;0.50;0.00
73146;PMS7003;61345;48.922;2.244;2022-07-05T01:00:35;1.25;1.00;1.00
73146;PMS7003;61345;48.922;2.244;2022-07-05T01:03:00;1.00;1.00;1.00
73146;PMS7003;61345;48.922;2.244;2022-07-05T01:05:26;2.00;1.00;1.00
73146;PMS7003;61345;48.922;2.244;2022-07-05T01:07:52;2.25;2.00;1.00
73146;PMS7003;61345;48.922;2.244;2022-07-05T01:10:18;2.00;2.00;1.50
73146;PMS7003;61345;48.922;2.244;2022-07-05T01:12:43;3.00;1.50;1.00
73146;PMS7003;61345;48.922;2.244;2022-07-05T01:15:09;1.50;1.00;1.00
73146;PMS7003;61345;48.922;2.244;2022-07-05T01:17:35;1.00;1.00;1.00
73146;PMS7003;61345;48.922;2.244;2022-07-05T01:20:02;1.00;1.00;1.00
73146;PMS7003;61345;48.922;2.244;2022-07-05T01:22:34;1.00;1.00;1.00
73146;PMS7003;61345;48.922;2.244;2022-07-05T01:25:14;1.00;1.00;0.75
73146;PMS7003;61345;48.922;2.244;2022-07-05T01:27:39;1.50;1.00;1.00
73146;PMS7003;61345;48.922;2.244;2022-07-05T01:30:05;1.00;1.00;1.00
73146;PMS7003;61345;48.922;2.244;2022-07-05T01:32:31;1.25;1.25;1.25
73146;PMS7003;61345;48.922;2.244;2022-07-05T01:34:56;2.75;0.00;0.00
73146;PMS7003;61345;48.922;2.244;2022-07-05T01:37:22;1.50;1.00;1.00
73146;PMS7003;61345;48.922;2.244;2022-07-05T01:39:47;2.50;1.00;1.00
73146;PMS7003;61345;48.922;2.244;2022-07-05T01:42:13;1.25;1.25;1.00
73146;PMS7003;61345;48.922;2.244;2022-07-05T01:44:38;1.00;1.00;1.00
73146;PMS7003;61345;48.922;2.244;2022-07-05T01:47:05;2.00;1.75;1.75
73146;PMS7003;61345;48.922;2.244;2022-07-05T01:49:32;2.50;1.50;1.00
73146;PMS7003;61345;48.922;2.244;2022-07-05T01:52:08;1.50;1.00;1.00
73146;PMS7003;61345;48.922;2.244;2022-07-05T01:54:35;3.00;1.00;1.00
73146;PMS7003;61345;48.922;2.244;2022-07-05T01:57:00;1.00;1.00;0.75
73146;PMS7003;61345;48.922;2.244;2022-07-05T01:59:27;0.00;0.00;0.00
73146;PMS7003;61345;48.922;2.244;2022-07-05T02:01:52;1.00;1.00;1.00
73146;PMS7003;61345;48.922;2.244;2022-07-05T02:04:18;1.00;1.00;1.00
73146;PMS7003;61345;48.922;2.244;2022-07-05T02:06:44;1.75;1.00;1.00
73146;PMS7003;61345;48.922;2.244;2022-07-05T02:09:10;1.50;1.00;1.00
73146;PMS7003;61345;48.922;2.244;2022-07-05T02:11:35;1.00;1.00;1.00
73146;PMS7003;61345;48.922;2.244;2022-07-05T02:14:01;2.25;1.00;1.00
73146;PMS7003;61345;48.922;2.244;2022-07-05T02:16:27;3.75;1.25;1.25
73146;PMS7003;61345;48.922;2.244;2022-07-05T02:18:53;2.00;2.00;1.50
73146;PMS7003;61345;48.922;2.244;2022-07-05T02:21:19;2.25;1.00;1.00
73146;PMS7003;61345;48.922;2.244;2022-07-05T02:23:45;3.50;2.00;1.50
73146;PMS7003;61345;48.922;2.244;2022-07-05T02:26:10;5.25;1.00;1.00
73146;PMS7003;61345;48.922;2.244;2022-07-05T02:28:36;1.00;1.00;1.00
73146;PMS7003;61345;48.922;2.244;2022-07-05T02:31:01;2.50;1.50;1.00
73146;PMS7003;61345;48.922;2.244;2022-07-05T02:33:27;5.00;1.00;1.00
73146;PMS7003;61345;48.922;2.244;2022-07-05T02:35:52;2.75;1.00;1.00
73146;PMS7003;61345;48.922;2.244;2022-07-05T02:38:17;1.00;1.00;1.00
73146;PMS7003;61345;48.922;2.244;2022-07-05T02:40:43;1.00;1.00;1.00
73146;PMS7003;61345;48.922;2.244;2022-07-05T02:43:08;0.25;0.25;0.25
73146;PMS7003;61345;48.922;2.244;2022-07-05T02:45:34;3.50;2.25;1.75
73146;PMS7003;61345;48.922;2.244;2022-07-05T02:47:59;1.00;1.00;1.00
73146;PMS7003;61345;48.922;2.244;2022-07-05T02:50:24;3.00;1.50;1.00
73146;PMS7003;61345;48.922;2.244;2022-07-05T02:52:50;3.00;1.00;1.00
73146;PMS7003;61345;48.922;2.244;2022-07-05T02:55:15;2.00;2.00;1.50
73146;PMS7003;61345;48.922;2.244;2022-07-05T02:57:41;2.00;1.00;0.75
73146;PMS7003;61345;48.922;2.244;2022-07-05T03:00:06;3.50;2.00;1.25
73146;PMS7003;61345;48.922;2.244;2022-07-05T03:02:32;2.50;2.25;2.00
73146;PMS7003;61345;48.922;2.244;2022-07-05T03:04:57;5.00;2.00;1.50
73146;PMS7003;61345;48.922;2.244;2022-07-05T03:07:23;2.00;2.00;1.25
73146;PMS7003;61345;48.922;2.244;2022-07-05T03:09:48;2.00;2.00;1.50
73146;PMS7003;61345;48.922;2.244;2022-07-05T03:12:13;4.00;2.75;2.00
73146;PMS7003;61345;48.922;2.244;2022-07-05T03:14:39;6.00;3.00;2.50
73146;PMS7003;61345;48.922;2.244;2022-07-05T03:17:04;6.00;2.00;2.00
73146;PMS7003;61345;48.922;2.244;2022-07-05T03:19:29;3.00;3.00;2.75
73146;PMS7003;61345;48.922;2.244;2022-07-05T03:21:55;3.25;3.25;2.50
73146;PMS7003;61345;48.922;2.244;2022-07-05T03:24:20;2.75;2.00;2.00
73146;PMS7003;61345;48.922;2.244;2022-07-05T03:26:45;3.25;2.00;2.00
73146;PMS7003;61345;48.922;2.244;2022-07-05T03:29:11;5.00;3.00;2.00
73146;PMS7003;61345;48.922;2.244;2022-07-05T03:31:36;4.75;4.75;4.00
73146;PMS7003;61345;48.922;2.244;2022-07-05T03:34:02;3.00;3.00;2.00
73146;PMS7003;61345;48.922;2.244;2022-07-05T03:36:27;3.00;3.00;3.00
73146;PMS7003;61345;48.922;2.244;2022-07-05T03:38:52;4.00;4.00;3.00
73146;PMS7003;61345;48.922;2.244;2022-07-05T03:41:18;5.75;4.00;3.00
73146;PMS7003;61345;48.922;2.244;2022-07-05T03:43:43;6.25;3.00;2.00
73146;PMS7003;61345;48.922;2.244;2022-07-05T03:46:08;4.00;4.00;3.00
73146;PMS7003;61345;48.922;2.244;2022-07-05T03:48:34;2.00;2.00;1.25
73146;PMS7003;61345;48.922;2.244;2022-07-05T03:50:59;3.00;2.00;2.00
73146;PMS7003;61345;48.922;2.244;2022-07-05T03:53:25;7.00;3.00;2.75
73146;PMS7003;61345;48.922;2.244;2022-07-05T03:55:50;5.00;4.00;3.00
73146;PMS7003;61345;48.922;2.244;2022-07-05T03:58:15;4.00;3.50;3.00
73146;PMS7003;61345;48.922;2.244;2022-07-05T04:00:41;4.75;4.00;3.50
73146;PMS7003;61345;48.922;2.244;2022-07-05T04:03:06;2.75;2.00;1.00
73146;PMS7003;61345;48.922;2.244;2022-07-05T04:05:32;4.25;3.50;2.75
73146;PMS7003;61345;48.922;2.244;2022-07-05T04:07:57;3.00;3.00;2.25
73146;PMS7003;61345;48.922;2.244;2022-07-05T04:10:22;5.25;3.25;3.00
73146;PMS7003;61345;48.922;2.244;2022-07-05T04:12:48;2.00;2.00;2.00
73146;PMS7003;61345;48.922;2.244;2022-07-05T04:15:14;6.75;3.00;2.00
73146;PMS7003;61345;48.922;2.244;2022-07-05T04:17:49;4.50;3.00;2.75
73146;PMS7003;61345;48.922;2.244;2022-07-05T04:20:16;3.00;3.00;3.00
73146;PMS7003;61345;48.922;2.244;2022-07-05T04:22:42;5.00;3.00;2.25
73146;PMS7003;61345;48.922;2.244;2022-07-05T04:25:07;4.25;3.00;3.00
73146;PMS7003;61345;48.922;2.244;2022-07-05T04:27:43;5.00;3.75;3.00
73146;PMS7003;61345;48.922;2.244;2022-07-05T04:30:09;4.00;3.00;2.75
73146;PMS7003;61345;48.922;2.244;2022-07-05T04:32:35;3.00;3.00;2.00
73146;PMS7003;61345;48.922;2.244;2022-07-05T04:35:00;4.50;4.00;4.00
73146;PMS7003;61345;48.922;2.244;2022-07-05T04:37:26;9.00;4.00;3.75
73146;PMS7003;61345;48.922;2.244;2022-07-05T04:39:52;7.25;5.00;4.00
73146;PMS7003;61345;48.922;2.244;2022-07-05T04:42:17;8.50;3.25;3.00
73146;PMS7003;61345;48.922;2.244;2022-07-05T04:44:43;2.50;2.50;2.00
73146;PMS7003;61345;48.922;2.244;2022-07-05T04:47:08;5.00;4.00;3.00
73146;PMS7003;61345;48.922;2.244;2022-07-05T04:49:33;3.25;3.25;2.25
73146;PMS7003;61345;48.922;2.244;2022-07-05T04:51:59;6.00;4.00;4.00
73146;PMS7003;61345;48.922;2.244;2022-07-05T04:54:24;4.25;3.00;2.25
73146;PMS7003;61345;48.922;2.244;2022-07-05T04:56:49;7.50;4.50;3.50
73146;PMS7003;61345;48.922;2.244;2022-07-05T04:59:15;8.00;5.00;4.00
73146;PMS7003;61345;48.922;2.244;2022-07-05T05:01:40;6.00;4.25;3.00
73146;PMS7003;61345;48.922;2.244;2022-07-05T05:04:06;9.00;4.25;3.50
73146;PMS7003;61345;48.922;2.244;2022-07-05T05:06:31;5.00;4.00;3.00
73146;PMS7003;61345;48.922;2.244;2022-07-05T05:08:56;8.25;5.00;4.00
73146;PMS7003;61345;48.922;2.244;2022-07-05T05:11:22;8.00;4.75;3.00
73146;PMS7003;61345;48.922;2.244;2022-07-05T05:13:47;6.50;4.25;3.25
73146;PMS7003;61345;48.922;2.244;2022-07-05T05:16:12;4.00;4.00;3.00
73146;PMS7003;61345;48.922;2.244;2022-07-05T05:18:38;8.25;3.50;3.00
73146;PMS7003;61345;48.922;2.244;2022-07-05T05:21:05;6.50;4.00;3.00
73146;PMS7003;61345;48.922;2.244;2022-07-05T05:23:31;5.00;4.25;3.00
73146;PMS7003;61345;48.922;2.244;2022-07-05T05:25:56;4.50;4.25;3.75
73146;PMS7003;61345;48.922;2.244;2022-07-05T05:28:21;9.00;3.00;3.00
73146;PMS7003;61345;48.922;2.244;2022-07-05T05:30:47;5.00;3.00;2.00
73146;PMS7003;61345;48.922;2.244;2022-07-05T05:33:12;5.25;4.00;3.00
73146;PMS7003;61345;48.922;2.244;2022-07-05T05:35:38;8.00;5.00;4.00
73146;PMS7003;61345;48.922;2.244;2022-07-05T05:38:03;6.00;5.00;4.00
73146;PMS7003;61345;48.922;2.244;2022-07-05T05:40:29;4.75;4.75;3.50
73146;PMS7003;61345;48.922;2.244;2022-07-05T05:42:54;7.25;5.00;4.00
73146;PMS7003;61345;48.922;2.244;2022-07-05T05:45:21;7.00;6.00;4.00
73146;PMS7003;61345;48.922;2.244;2022-07-05T05:47:51;6.00;5.50;4.00
73146;PMS7003;61345;48.922;2.244;2022-07-05T05:52:46;13.50;5.25;3.50
73146;PMS7003;61345;48.922;2.244;2022-07-05T05:55:11;6.75;5.00;4.00
73146;PMS7003;61345;48.922;2.244;2022-07-05T05:57:37;5.50;5.50;4.75
73146;PMS7003;61345;48.922;2.244;2022-07-05T06:00:03;6.75;6.75;4.00
73146;PMS7003;61345;48.922;2.244;2022-07-05T06:02:29;9.25;5.50;4.50
73146;PMS7003;61345;48.922;2.244;2022-07-05T06:04:55;7.00;7.00;4.50
73146;PMS7003;61345;48.922;2.244;2022-07-05T06:07:20;9.00;6.50;4.25
73146;PMS7003;61345;48.922;2.244;2022-07-05T06:09:45;8.75;6.00;4.50
73146;PMS7003;61345;48.922;2.244;2022-07-05T06:12:11;8.75;7.00;5.00
73146;PMS7003;61345;48.922;2.244;2022-07-05T06:14:37;10.50;5.25;4.00
73146;PMS7003;61345;48.922;2.244;2022-07-05T06:17:02;8.00;5.75;4.00
73146;PMS7003;61345;48.922;2.244;2022-07-05T06:19:27;11.75;7.00;5.00
73146;PMS7003;61345;48.922;2.244;2022-07-05T06:21:53;6.00;6.00;5.00
73146;PMS7003;61345;48.922;2.244;2022-07-05T06:24:18;6.50;6.00;5.00
73146;PMS7003;61345;48.922;2.244;2022-07-05T06:26:43;7.75;6.00;5.00
73146;PMS7003;61345;48.922;2.244;2022-07-05T06:29:09;9.75;5.00;4.25
73146;PMS7003;61345;48.922;2.244;2022-07-05T06:31:34;7.75;6.00;5.00
73146;PMS7003;61345;48.922;2.244;2022-07-05T06:33:59;7.75;6.00;4.00
73146;PMS7003;61345;48.922;2.244;2022-07-05T06:36:25;9.00;6.75;4.00
73146;PMS7003;61345;48.922;2.244;2022-07-05T06:38:50;8.50;6.00;4.00
73146;PMS7003;61345;48.922;2.244;2022-07-05T06:41:15;9.25;8.00;5.25
73146;PMS7003;61345;48.922;2.244;2022-07-05T06:43:41;7.00;6.25;4.75
73146;PMS7003;61345;48.922;2.244;2022-07-05T06:46:06;11.25;7.00;5.00
73146;PMS7003;61345;48.922;2.244;2022-07-05T06:48:31;7.00;5.75;5.00
73146;PMS7003;61345;48.922;2.244;2022-07-05T06:50:57;10.00;8.00;6.00
73146;PMS7003;61345;48.922;2.244;2022-07-05T06:53:22;10.50;6.75;5.00
73146;PMS7003;61345;48.922;2.244;2022-07-05T06:55:47;9.75;9.25;5.50
73146;PMS7003;61345;48.922;2.244;2022-07-05T06:58:13;6.75;6.75;4.75
73146;PMS7003;61345;48.922;2.244;2022-07-05T07:00:39;10.75;7.00;5.00
73146;PMS7003;61345;48.922;2.244;2022-07-05T07:03:05;7.00;6.50;5.00
73146;PMS7003;61345;48.922;2.244;2022-07-05T07:05:30;12.25;6.00;5.00
73146;PMS7003;61345;48.922;2.244;2022-07-05T07:07:55;11.50;7.00;5.00
73146;PMS7003;61345;48.922;2.244;2022-07-05T07:10:39;11.25;7.25;5.50
73146;PMS7003;61345;48.922;2.244;2022-07-05T07:13:05;10.50;5.25;5.00
73146;PMS7003;61345;48.922;2.244;2022-07-05T07:15:30;10.75;8.50;6.00
73146;PMS7003;61345;48.922;2.244;2022-07-05T07:17:56;10.25;7.50;6.25
73146;PMS7003;61345;48.922;2.244;2022-07-05T07:20:22;8.25;6.50;5.00
73146;PMS7003;61345;48.922;2.244;2022-07-05T07:22:47;9.25;7.00;5.25
73146;PMS7003;61345;48.922;2.244;2022-07-05T07:25:13;11.00;7.25;5.75
73146;PMS7003;61345;48.922;2.244;2022-07-05T07:27:51;12.50;8.25;5.25
73146;PMS7003;61345;48.922;2.244;2022-07-05T07:30:19;11.75;7.50;5.50
73146;PMS7003;61345;48.922;2.244;2022-07-05T07:32:49;11.00;9.00;6.75
73146;PMS7003;61345;48.922;2.244;2022-07-05T07:35:16;7.25;7.25;6.00
73146;PMS7003;61345;48.922;2.244;2022-07-05T07:37:49;14.50;7.00;6.00
73146;PMS7003;61345;48.922;2.244;2022-07-05T07:40:14;8.00;6.50;5.00
73146;PMS7003;61345;48.922;2.244;2022-07-05T07:42:40;7.25;7.00;5.25
73146;PMS7003;61345;48.922;2.244;2022-07-05T07:45:06;8.00;6.25;5.00
73146;PMS7003;61345;48.922;2.244;2022-07-05T07:47:34;8.00;8.00;6.50
73146;PMS7003;61345;48.922;2.244;2022-07-05T07:50:01;9.00;7.00;6.00
73146;PMS7003;61345;48.922;2.244;2022-07-05T07:52:26;7.00;7.00;5.00
73146;PMS7003;61345;48.922;2.244;2022-07-05T07:54:52;7.00;7.00;5.00
73146;PMS7003;61345;48.922;2.244;2022-07-05T07:57:18;5.75;5.00;4.00
73146;PMS7003;61345;48.922;2.244;2022-07-05T07:59:43;5.00;5.00;4.00
73146;PMS7003;61345;48.922;2.244;2022-07-05T08:02:09;7.00;7.00;6.00
73146;PMS7003;61345;48.922;2.244;2022-07-05T08:04:35;10.25;8.00;5.75
73146;PMS7003;61345;48.922;2.244;2022-07-05T08:07:00;7.75;6.75;4.50
73146;PMS7003;61345;48.922;2.244;2022-07-05T08:09:28;8.25;7.00;6.00
73146;PMS7003;61345;48.922;2.244;2022-07-05T08:11:53;9.50;7.00;5.00
73146;PMS7003;61345;48.922;2.244;2022-07-05T08:14:19;7.25;7.00;5.75
73146;PMS7003;61345;48.922;2.244;2022-07-05T08:16:46;8.75;6.00;4.50
73146;PMS7003;61345;48.922;2.244;2022-07-05T08:19:12;6.00;6.00;5.00
73146;PMS7003;61345;48.922;2.244;2022-07-05T08:21:57;12.00;6.00;5.00
73146;PMS7003;61345;48.922;2.244;2022-07-05T08:24:22;6.00;5.50;5.00
73146;PMS7003;61345;48.922;2.244;2022-07-05T08:26:47;8.00;6.50;5.00
73146;PMS7003;61345;48.922;2.244;2022-07-05T08:29:13;10.75;6.75;6.00
73146;PMS7003;61345;48.922;2.244;2022-07-05T08:31:41;6.75;6.75;6.00
73146;PMS7003;61345;48.922;2.244;2022-07-05T08:34:08;7.00;7.00;5.00
73146;PMS7003;61345;48.922;2.244;2022-07-05T08:36:34;5.00;5.00;4.25
73146;PMS7003;61345;48.922;2.244;2022-07-05T08:39:00;7.75;7.00;5.00
73146;PMS7003;61345;48.922;2.244;2022-07-05T08:41:26;6.00;6.00;4.75
73146;PMS7003;61345;48.922;2.244;2022-07-05T08:43:51;9.00;7.75;6.00
73146;PMS7003;61345;48.922;2.244;2022-07-05T08:46:17;8.00;6.25;5.00
73146;PMS7003;61345;48.922;2.244;2022-07-05T08:48:44;6.25;6.00;4.25
73146;PMS7003;61345;48.922;2.244;2022-07-05T08:51:12;7.00;7.00;5.75
73146;PMS7003;61345;48.922;2.244;2022-07-05T08:53:40;9.50;6.75;5.00
73146;PMS7003;61345;48.922;2.244;2022-07-05T08:56:10;5.75;5.00;4.00
73146;PMS7003;61345;48.922;2.244;2022-07-05T08:58:37;9.50;6.25;4.50
73146;PMS7003;61345;48.922;2.244;2022-07-05T09:01:03;6.50;5.00;4.00
73146;PMS7003;61345;48.922;2.244;2022-07-05T09:03:33;6.00;6.00;5.00
73146;PMS7003;61345;48.922;2.244;2022-07-05T09:06:03;6.50;6.00;4.75
73146;PMS7003;61345;48.922;2.244;2022-07-05T09:08:30;5.50;5.00;3.25
73146;PMS7003;61345;48.922;2.244;2022-07-05T09:11:00;6.50;4.50;3.00
73146;PMS7003;61345;48.922;2.244;2022-07-05T09:13:28;7.25;5.25;4.50
73146;PMS7003;61345;48.922;2.244;2022-07-05T09:15:58;4.50;4.50;3.50
73146;PMS7003;61345;48.922;2.244;2022-07-05T09:18:40;5.75;4.00;3.75
73146;PMS7003;61345;48.922;2.244;2022-07-05T09:23:52;7.50;6.25;4.50
73146;PMS7003;61345;48.922;2.244;2022-07-05T09:29:14;3.25;3.25;2.75
73146;PMS7003;61345;48.922;2.244;2022-07-05T09:31:41;3.50;3.25;3.00
73146;PMS7003;61345;48.922;2.244;2022-07-05T09:34:08;4.50;3.25;3.00
73146;PMS7003;61345;48.922;2.244;2022-07-05T09:36:52;3.00;3.00;2.00
73146;PMS7003;61345;48.922;2.244;2022-07-05T09:42:16;4.75;4.75;4.00
73146;PMS7003;61345;48.922;2.244;2022-07-05T09:44:47;3.50;3.50;3.25
73146;PMS7003;61345;48.922;2.244;2022-07-05T09:47:14;4.00;4.00;3.00
73146;PMS7003;61345;48.922;2.244;2022-07-05T09:49:41;5.25;5.25;4.00
73146;PMS7003;61345;48.922;2.244;2022-07-05T09:52:25;7.00;5.75;4.00
73146;PMS7003;61345;48.922;2.244;2022-07-05T09:57:27;5.00;4.25;3.75
73146;PMS7003;61345;48.922;2.244;2022-07-05T10:00:01;5.00;4.75;4.25
73146;PMS7003;61345;48.922;2.244;2022-07-05T10:05:16;7.75;5.50;4.00
73146;PMS7003;61345;48.922;2.244;2022-07-05T10:10:17;5.50;5.00;3.75
73146;PMS7003;61345;48.922;2.244;2022-07-05T10:12:44;7.25;5.00;4.50
73146;PMS7003;61345;48.922;2.244;2022-07-05T10:15:11;4.50;4.50;4.00
73146;PMS7003;61345;48.922;2.244;2022-07-05T10:17:44;3.75;3.75;3.00
73146;PMS7003;61345;48.922;2.244;2022-07-05T10:20:17;4.00;3.25;3.00
73146;PMS7003;61345;48.922;2.244;2022-07-05T10:22:47;10.00;5.75;5.00
73146;PMS7003;61345;48.922;2.244;2022-07-05T10:25:13;5.00;5.00;5.00
73146;PMS7003;61345;48.922;2.244;2022-07-05T10:27:39;5.50;4.50;4.00
73146;PMS7003;61345;48.922;2.244;2022-07-05T10:30:05;7.25;5.00;4.00
73146;PMS7003;61345;48.922;2.244;2022-07-05T10:32:31;7.00;4.75;3.50
73146;PMS7003;61345;48.922;2.244;2022-07-05T10:34:58;4.25;3.75;3.00
73146;PMS7003;61345;48.922;2.244;2022-07-05T10:37:28;5.00;4.50;3.50
73146;PMS7003;61345;48.922;2.244;2022-07-05T10:39:55;3.25;3.25;3.00
73146;PMS7003;61345;48.922;2.244;2022-07-05T10:42:22;4.00;4.00;3.00
73146;PMS7003;61345;48.922;2.244;2022-07-05T10:44:48;4.50;4.50;3.50
73146;PMS7003;61345;48.922;2.244;2022-07-05T10:47:14;6.00;4.00;3.75
73146;PMS7003;61345;48.922;2.244;2022-07-05T10:49:39;3.50;3.50;2.50
73146;PMS7003;61345;48.922;2.244;2022-07-05T10:52:20;4.50;4.50;4.00
73146;PMS7003;61345;48.922;2.244;2022-07-05T10:55:17;5.75;3.75;3.00
73146;PMS7003;61345;48.922;2.244;2022-07-05T11:00:45;7.75;4.50;3.75
73146;PMS7003;61345;48.922;2.244;2022-07-05T11:06:00;4.00;2.75;2.00
73146;PMS7003;61345;48.922;2.244;2022-07-05T11:11:34;2.50;2.50;2.00
73146;PMS7003;61345;48.922;2.244;2022-07-05T11:16:47;4.00;3.50;2.50
73146;PMS7003;61345;48.922;2.244;2022-07-05T11:19:17;3.00;3.00;3.00
73146;PMS7003;61345;48.922;2.244;2022-07-05T11:22:05;4.00;2.75;2.00
73146;PMS7003;61345;48.922;2.244;2022-07-05T11:24:31;4.00;2.75;2.00
73146;PMS7003;61345;48.922;2.244;2022-07-05T11:26:58;4.00;3.00;3.00
73146;PMS7003;61345;48.922;2.244;2022-07-05T11:29:41;2.00;2.00;2.00
73146;PMS7003;61345;48.922;2.244;2022-07-05T11:32:08;5.25;3.50;3.00
73146;PMS7003;61345;48.922;2.244;2022-07-05T11:34:50;4.75;3.25;3.00
73146;PMS7003;61345;48.922;2.244;2022-07-05T11:40:26;5.00;3.00;3.00
73146;PMS7003;61345;48.922;2.244;2022-07-05T11:42:46;4.00;3.50;3.00
73146;PMS7003;61345;48.922;2.244;2022-07-05T11:45:12;3.00;2.25;1.25
73146;PMS7003;61345;48.922;2.244;2022-07-05T11:47:41;2.00;2.00;2.00
73146;PMS7003;61345;48.922;2.244;2022-07-05T11:50:07;3.50;1.50;1.00
73146;PMS7003;61345;48.922;2.244;2022-07-05T11:52:33;1.25;1.25;1.25
73146;PMS7003;61345;48.922;2.244;2022-07-05T11:55:01;1.50;1.50;1.25
73146;PMS7003;61345;48.922;2.244;2022-07-05T11:57:29;2.00;2.00;2.00
73146;PMS7003;61345;48.922;2.244;2022-07-05T11:59:54;5.00;2.00;2.00
73146;PMS7003;61345;48.922;2.244;2022-07-05T12:02:19;0.75;0.75;0.00
73146;PMS7003;61345;48.922;2.244;2022-07-05T12:04:49;1.00;1.00;1.00
73146;PMS7003;61345;48.922;2.244;2022-07-05T12:09:56;1.00;1.00;1.00
73146;PMS7003;61345;48.922;2.244;2022-07-05T12:12:40;1.00;1.00;1.00
73146;PMS7003;61345;48.922;2.244;2022-07-05T12:15:12;2.00;0.50;0.50
73146;PMS7003;61345;48.922;2.244;2022-07-05T12:17:47;2.00;1.00;1.00
73146;PMS7003;61345;48.922;2.244;2022-07-05T12:20:15;1.00;1.00;1.00
73146;PMS7003;61345;48.922;2.244;2022-07-05T12:22:45;3.00;2.00;2.00
73146;PMS7003;61345;48.922;2.244;2022-07-05T12:25:13;1.25;1.25;1.00
73146;PMS7003;61345;48.922;2.244;2022-07-05T12:27:43;0.00;0.00;0.00
73146;PMS7003;61345;48.922;2.244;2022-07-05T12:30:10;1.75;1.75;1.25
73146;PMS7003;61345;48.922;2.244;2022-07-05T12:35:27;0.75;0.75;0.75
73146;PMS7003;61345;48.922;2.244;2022-07-05T12:38:04;1.00;1.00;0.75
73146;PMS7003;61345;48.922;2.244;2022-07-05T12:40:34;1.25;1.00;0.25
73146;PMS7003;61345;48.922;2.244;2022-07-05T12:43:05;1.00;1.00;1.00
73146;PMS7003;61345;48.922;2.244;2022-07-05T12:45:31;4.00;1.00;1.00
73146;PMS7003;61345;48.922;2.244;2022-07-05T12:47:57;1.25;1.25;0.50
73146;PMS7003;61345;48.922;2.244;2022-07-05T12:50:24;2.00;2.00;1.50
73146;PMS7003;61345;48.922;2.244;2022-07-05T12:53:00;1.25;1.25;1.00
73146;PMS7003;61345;48.922;2.244;2022-07-05T12:55:51;3.00;1.00;1.00
73146;PMS7003;61345;48.922;2.244;2022-07-05T12:58:51;0.50;0.50;0.50
73146;PMS7003;61345;48.922;2.244;2022-07-05T13:01:29;2.00;0.50;0.50
73146;PMS7003;61345;48.922;2.244;2022-07-05T13:06:45;1.50;1.25;1.00
73146;PMS7003;61345;48.922;2.244;2022-07-05T13:09:14;0.00;0.00;0.00
73146;PMS7003;61345;48.922;2.244;2022-07-05T13:11:41;1.00;1.00;1.00
73146;PMS7003;61345;48.922;2.244;2022-07-05T13:14:07;3.00;1.50;1.00
73146;PMS7003;61345;48.922;2.244;2022-07-05T13:16:33;2.00;2.00;1.00
73146;PMS7003;61345;48.922;2.244;2022-07-05T13:19:07;3.25;1.00;1.00
73146;PMS7003;61345;48.922;2.244;2022-07-05T13:21:33;2.00;1.75;1.00
73146;PMS7003;61345;48.922;2.244;2022-07-05T13:23:59;1.50;1.25;1.00
73146;PMS7003;61345;48.922;2.244;2022-07-05T13:26:24;1.00;1.00;1.00
73146;PMS7003;61345;48.922;2.244;2022-07-05T13:28:50;1.00;1.00;0.00
73146;PMS7003;61345;48.922;2.244;2022-07-05T13:31:15;0.75;0.75;0.75
73146;PMS7003;61345;48.922;2.244;2022-07-05T13:33:40;0.50;0.50;0.50
73146;PMS7003;61345;48.922;2.244;2022-07-05T13:36:06;1.50;1.50;1.00
73146;PMS7003;61345;48.922;2.244;2022-07-05T13:38:31;1.00;1.00;1.00
73146;PMS7003;61345;48.922;2.244;2022-07-05T13:40:57;0.00;0.00;0.00
73146;PMS7003;61345;48.922;2.244;2022-07-05T13:43:22;1.50;1.00;1.00
73146;PMS7003;61345;48.922;2.244;2022-07-05T13:45:47;1.00;1.00;1.00
73146;PMS7003;61345;48.922;2.244;2022-07-05T13:48:13;0.00;0.00;0.00
73146;PMS7003;61345;48.922;2.244;2022-07-05T13:50:38;3.50;1.50;1.00
73146;PMS7003;61345;48.922;2.244;2022-07-05T13:53:05;0.00;0.00;0.00
73146;PMS7003;61345;48.922;2.244;2022-07-05T13:55:30;1.75;1.75;1.75
73146;PMS7003;61345;48.922;2.244;2022-07-05T13:57:55;1.00;1.00;0.50
73146;PMS7003;61345;48.922;2.244;2022-07-05T14:00:22;1.75;1.75;1.75
73146;PMS7003;61345;48.922;2.244;2022-07-05T14:02:48;2.00;2.00;2.00
73146;PMS7003;61345;48.922;2.244;2022-07-05T14:05:13;2.00;2.00;1.25
73146;PMS7003;61345;48.922;2.244;2022-07-05T14:07:41;1.50;1.50;1.00
73146;PMS7003;61345;48.922;2.244;2022-07-05T14:10:07;1.75;1.50;1.00
73146;PMS7003;61345;48.922;2.244;2022-07-05T14:12:32;1.75;1.00;1.00
73146;PMS7003;61345;48.922;2.244;2022-07-05T14:14:58;0.75;0.75;0.75
73146;PMS7003;61345;48.922;2.244;2022-07-05T14:17:23;1.00;1.00;1.00
73146;PMS7003;61345;48.922;2.244;2022-07-05T14:19:49;0.25;0.25;0.25
73146;PMS7003;61345;48.922;2.244;2022-07-05T14:22:14;1.00;1.00;0.00
73146;PMS7003;61345;48.922;2.244;2022-07-05T14:24:39;1.00;1.00;1.00
73146;PMS7003;61345;48.922;2.244;2022-07-05T14:27:05;1.00;1.00;1.00
73146;PMS7003;61345;48.922;2.244;2022-07-05T14:29:33;1.00;1.00;1.00
73146;PMS7003;61345;48.922;2.244;2022-07-05T14:32:01;1.25;1.00;0.25
73146;PMS7003;61345;48.922;2.244;2022-07-05T14:34:26;0.50;0.50;0.50
73146;PMS7003;61345;48.922;2.244;2022-07-05T14:36:55;1.75;1.00;1.00
73146;PMS7003;61345;48.922;2.244;2022-07-05T14:39:20;2.00;1.00;1.00
73146;PMS7003;61345;48.922;2.244;2022-07-05T14:41:46;1.00;1.00;1.00
73146;PMS7003;61345;48.922;2.244;2022-07-05T14:44:12;1.75;1.75;1.00
73146;PMS7003;61345;48.922;2.244;2022-07-05T14:46:38;1.00;1.00;1.00
73146;PMS7003;61345;48.922;2.244;2022-07-05T14:49:06;0.25;0.00;0.00
73146;PMS7003;61345;48.922;2.244;2022-07-05T14:51:33;0.75;0.75;0.75
73146;PMS7003;61345;48.922;2.244;2022-07-05T14:53:59;3.00;1.00;1.00
73146;PMS7003;61345;48.922;2.244;2022-07-05T14:56:24;2.50;1.50;1.25
73146;PMS7003;61345;48.922;2.244;2022-07-05T14:58:50;1.25;1.00;0.75
73146;PMS7003;61345;48.922;2.244;2022-07-05T15:01:15;3.00;1.75;1.00
73146;PMS7003;61345;48.922;2.244;2022-07-05T15:03:42;2.50;1.25;0.50